Palm Springs North, Florida
Current Conditions -  °F | °C
As of 8:53 PM on Sunday 21 Dec 2014 (Local Time) from KOPF Reporting Station
Broken Clouds Broken Clouds  
Wind Chill: 70°   Ceiling: 11000
Heat Index: 70°   Visibility: 10mi
Dew Point: 64°   Wind: 5mph
Humidity: 81%   Direction: 110°ESE
Pressure: 30.04"   Gusts: NA
Location:  25.9357°N, 80.3817°W
Report Text: KOPF 220153Z AUTO 11004KT 10SM BKN110 21/18 A3004 RMK AO2 SLP175 T02110178
Loading
Personal Weather Stations






























Interactive Weather Map New forecast layout! Learn more

10-Day Weather Forecast

Advertisements
Track Severe Weather on mobile